Terminal Aerodrome Forecast
Issued by NWS

Home | Current Version | Previous Version | Text Only | Print | Product List | Glossary On
Versions: 1 2 3 4 5 6 7 8 9 10 11 12 13 14 15 16
000
FTUS43 KOAX 231744
TAFSNY
TAF
KSNY 231744Z 2318/2418 32015G20KT P6SM SCT250
     FM232100 36010KT P6SM FEW250
     FM240000 04009KT P6SM VCTS BKN150CB
     FM240400 04009KT P6SM OVC100=

USA.gov is the U.S. government's official web portal to all federal, state and local government web resources and services.